createdAt,value
2022-11-19T00:02:53.253Z,16.20
2022-11-19T00:06:00.381Z,17.20
2022-11-19T00:09:07.906Z,17.30
2022-11-19T00:12:15.100Z,17.40
2022-11-19T00:15:22.242Z,19.50
2022-11-19T00:18:29.630Z,19.70
2022-11-19T00:21:36.411Z,17.30
2022-11-19T00:24:43.905Z,18.50
2022-11-19T00:27:51.229Z,20.20
2022-11-19T00:30:58.091Z,19.40
2022-11-19T00:34:05.653Z,20.90
2022-11-19T00:37:13.081Z,19.70
2022-11-19T00:40:19.832Z,20.30
2022-11-19T00:43:27.454Z,22.30
2022-11-19T00:46:34.586Z,20.20
2022-11-19T00:49:41.744Z,19.70
2022-11-19T00:52:49.251Z,21.00
2022-11-19T00:55:55.951Z,19.60
2022-11-19T00:59:03.259Z,23.30
2022-11-19T01:02:10.753Z,19.30
2022-11-19T01:05:17.560Z,20.20
2022-11-19T01:08:24.934Z,19.40
2022-11-19T01:11:32.244Z,19.00
2022-11-19T01:14:38.923Z,19.50
2022-11-19T01:17:46.644Z,21.90
2022-11-19T01:20:53.443Z,21.30
2022-11-19T01:24:00.521Z,20.20
2022-11-19T01:27:04.093Z,19.30
2022-11-19T01:30:11.407Z,20.30
2022-11-19T01:33:18.556Z,21.70
2022-11-19T01:36:25.744Z,23.00
2022-11-19T01:39:32.768Z,22.20
2022-11-19T01:42:39.962Z,20.70
2022-11-19T01:45:46.757Z,23.40
2022-11-19T01:48:54.177Z,22.40
2022-11-19T01:52:01.262Z,20.90
2022-11-19T01:55:07.957Z,22.20
2022-11-19T01:58:15.297Z,20.80
2022-11-19T02:01:22.775Z,20.40
2022-11-19T02:04:29.468Z,20.50
2022-11-19T02:07:36.969Z,20.90
2022-11-19T02:10:43.936Z,21.60
2022-11-19T02:13:50.977Z,22.50
2022-11-19T02:16:58.491Z,20.60
2022-11-19T02:20:05.668Z,22.00
2022-11-19T02:23:12.736Z,23.00
2022-11-19T02:26:19.779Z,21.40
2022-11-19T02:29:27.098Z,22.50
2022-11-19T02:32:34.237Z,22.40
2022-11-19T02:35:41.455Z,23.10
2022-11-19T02:38:48.896Z,22.50
2022-11-19T02:41:55.887Z,22.60
2022-11-19T02:45:03.010Z,23.50
2022-11-19T02:48:11.041Z,23.70
2022-11-19T02:51:17.843Z,22.10
2022-11-19T02:54:25.328Z,24.00
2022-11-19T02:57:32.909Z,20.70
2022-11-19T03:00:39.718Z,21.50
2022-11-19T03:03:47.419Z,21.20
2022-11-19T03:06:54.737Z,23.30
2022-11-19T03:10:01.559Z,24.00
2022-11-19T03:13:09.087Z,21.70
2022-11-19T03:16:15.797Z,23.90
2022-11-19T03:19:23.140Z,24.80
2022-11-19T03:22:30.608Z,22.60
2022-11-19T03:25:37.339Z,22.10
2022-11-19T03:28:44.879Z,25.90
2022-11-19T03:31:52.383Z,23.40
2022-11-19T03:34:59.579Z,25.70
2022-11-19T03:38:06.560Z,26.80
2022-11-19T03:41:13.618Z,22.40
2022-11-19T03:44:21.110Z,24.60
2022-11-19T03:47:28.274Z,25.60
2022-11-19T03:50:35.420Z,24.20
2022-11-19T03:53:42.630Z,23.50
2022-11-19T03:56:49.602Z,24.60
2022-11-19T03:59:56.810Z,24.50
2022-11-19T04:03:04.162Z,27.10
2022-11-19T04:06:10.950Z,22.70
2022-11-19T04:09:18.962Z,25.50
2022-11-19T04:12:26.635Z,23.30
2022-11-19T04:15:33.450Z,25.60
2022-11-19T04:18:40.971Z,27.30
2022-11-19T04:21:48.304Z,29.50
2022-11-19T04:24:55.154Z,21.10
2022-11-19T04:28:02.711Z,25.40
2022-11-19T04:31:12.353Z,25.30
2022-11-19T04:34:13.353Z,23.80
2022-11-19T04:37:20.662Z,23.50
2022-11-19T04:40:27.472Z,22.50
2022-11-19T04:43:34.774Z,25.40
2022-11-19T04:46:42.273Z,26.10
2022-11-19T04:49:49.035Z,23.30
2022-11-19T04:52:56.561Z,23.30
2022-11-19T04:56:03.697Z,23.90
2022-11-19T04:59:10.751Z,23.70
2022-11-19T05:02:18.254Z,24.10
2022-11-19T05:05:25.253Z,26.70
2022-11-19T05:08:32.350Z,22.40
2022-11-19T05:11:39.450Z,23.50
2022-11-19T05:14:46.894Z,24.30
2022-11-19T05:17:54.043Z,21.70
2022-11-19T05:21:01.203Z,22.90
2022-11-19T05:24:08.683Z,21.80
2022-11-19T05:27:15.674Z,23.60
2022-11-19T05:30:23.376Z,23.20
2022-11-19T05:33:34.034Z,20.90
2022-11-19T05:36:31.383Z,23.60
2022-11-19T05:39:39.103Z,22.70
2022-11-19T05:42:46.795Z,23.00
2022-11-19T05:45:53.757Z,21.70
2022-11-19T05:49:01.314Z,22.00
2022-11-19T05:52:08.934Z,20.30
2022-11-19T05:55:15.715Z,20.60
2022-11-19T05:58:23.293Z,19.50
2022-11-19T06:01:30.766Z,20.50
2022-11-19T06:04:37.805Z,24.20
2022-11-19T06:07:45.182Z,24.80
2022-11-19T06:10:52.365Z,22.70
2022-11-19T06:13:59.233Z,21.70
2022-11-19T06:17:07.065Z,23.30
2022-11-19T06:20:15.165Z,23.50
2022-11-19T06:23:22.848Z,21.90
2022-11-19T06:26:29.944Z,24.80
2022-11-19T06:29:37.575Z,22.30
2022-11-19T06:32:44.806Z,21.10
2022-11-19T06:35:52.226Z,25.20
2022-11-19T06:39:02.104Z,23.10
2022-11-19T06:42:09.284Z,22.40
2022-11-19T06:45:16.156Z,22.70
2022-11-19T06:48:23.634Z,20.00
2022-11-19T06:51:30.749Z,21.80
2022-11-19T06:54:41.846Z,21.50
2022-11-19T06:57:39.876Z,21.30
2022-11-19T07:00:46.678Z,21.10
2022-11-19T07:03:54.376Z,21.80
2022-11-19T07:07:01.993Z,20.70
2022-11-19T07:10:08.858Z,19.00
2022-11-19T07:13:16.187Z,22.10
2022-11-19T07:16:23.498Z,22.30
2022-11-19T07:19:30.728Z,20.20
2022-11-19T07:22:38.301Z,20.60
2022-11-19T07:25:45.397Z,20.40
2022-11-19T07:28:52.688Z,21.10
2022-11-19T07:32:00.019Z,20.50
2022-11-19T07:35:07.378Z,18.10
2022-11-19T07:38:14.899Z,18.30
2022-11-19T07:41:22.560Z,21.10
2022-11-19T07:44:29.916Z,17.70
2022-11-19T07:47:37.295Z,18.90
2022-11-19T07:50:44.708Z,20.30
2022-11-19T07:53:52.539Z,21.90
2022-11-19T07:56:59.960Z,20.50
2022-11-19T08:00:07.522Z,17.90
2022-11-19T08:03:15.387Z,17.90
2022-11-19T08:06:22.432Z,20.00
2022-11-19T08:09:30.234Z,20.30
2022-11-19T08:12:38.015Z,19.40
2022-11-19T08:15:45.121Z,21.80
2022-11-19T08:18:52.919Z,22.60
2022-11-19T08:22:00.650Z,20.60
2022-11-19T08:25:07.712Z,22.60
2022-11-19T08:28:15.521Z,19.80
2022-11-19T08:31:22.862Z,24.70
2022-11-19T08:34:30.113Z,25.80
2022-11-19T08:37:37.792Z,34.50
2022-11-19T08:40:45.172Z,26.50
2022-11-19T08:43:52.639Z,26.40
2022-11-19T08:47:00.370Z,40.00
2022-11-19T08:50:07.832Z,30.50
2022-11-19T08:53:15.331Z,31.80
2022-11-19T08:56:22.691Z,31.50
2022-11-19T08:59:30.270Z,27.70
2022-11-19T09:02:37.798Z,26.20
2022-11-19T09:05:45.061Z,23.20
2022-11-19T09:08:52.500Z,24.80
2022-11-19T09:12:00.500Z,23.40
2022-11-19T09:15:07.821Z,23.70
2022-11-19T09:18:15.273Z,21.30
2022-11-19T09:21:22.593Z,26.30
2022-11-19T09:24:30.352Z,22.80
2022-11-19T09:27:37.820Z,22.30
2022-11-19T09:30:45.273Z,24.30
2022-11-19T09:33:53.214Z,21.30
2022-11-19T09:37:00.883Z,25.80
2022-11-19T09:40:07.832Z,24.80
2022-11-19T09:43:15.854Z,26.70
2022-11-19T09:46:22.884Z,25.90
2022-11-19T09:49:30.644Z,28.40
2022-11-19T09:52:38.579Z,24.80
2022-11-19T09:55:45.634Z,22.90
2022-11-19T09:58:53.714Z,20.30
2022-11-19T10:02:01.252Z,23.60
2022-11-19T10:05:08.704Z,23.90
2022-11-19T10:08:16.325Z,22.40
2022-11-19T10:11:23.815Z,21.30
2022-11-19T10:14:31.697Z,23.30
2022-11-19T10:17:39.213Z,20.90
2022-11-19T10:20:46.605Z,21.40
2022-11-19T10:23:53.948Z,22.50
2022-11-19T10:27:07.234Z,23.40
2022-11-19T10:30:05.304Z,21.00
2022-11-19T10:33:13.545Z,23.10
2022-11-19T10:36:20.988Z,17.90
2022-11-19T10:39:28.571Z,20.00
2022-11-19T10:42:36.007Z,18.60
2022-11-19T10:45:43.490Z,17.70
2022-11-19T10:48:51.398Z,18.50
2022-11-19T10:51:58.789Z,19.30
2022-11-19T10:55:06.098Z,16.90
2022-11-19T10:58:14.009Z,20.10
2022-11-19T11:01:21.039Z,18.50
2022-11-19T11:04:29.168Z,17.20
2022-11-19T11:07:36.630Z,15.70
2022-11-19T11:10:44.184Z,17.80
2022-11-19T11:13:51.966Z,25.40
2022-11-19T11:16:58.831Z,14.10
2022-11-19T11:20:06.621Z,14.00
2022-11-19T11:23:13.740Z,12.80
2022-11-19T11:26:21.580Z,9.70
2022-11-19T11:29:29.631Z,5.70
2022-11-19T11:32:36.811Z,7.30
2022-11-19T11:35:44.702Z,8.30
2022-11-19T11:38:52.297Z,10.20
2022-11-19T11:42:05.830Z,8.00
2022-11-19T11:45:03.634Z,11.10
2022-11-19T11:48:10.612Z,13.90
2022-11-19T11:51:18.493Z,10.20
2022-11-19T11:54:25.872Z,11.10
2022-11-19T11:57:33.291Z,10.60
2022-11-19T12:00:41.093Z,10.80
2022-11-19T12:03:54.855Z,11.60
2022-11-19T12:06:51.825Z,12.10
2022-11-19T12:09:59.189Z,12.40
2022-11-19T12:13:06.715Z,8.60
2022-11-19T12:16:14.776Z,10.90
2022-11-19T12:19:22.098Z,8.90
2022-11-19T12:22:29.735Z,8.70
2022-11-19T12:25:37.234Z,9.30
2022-11-19T12:28:44.726Z,8.40
2022-11-19T12:31:52.476Z,10.90
2022-11-19T12:34:59.746Z,9.60
2022-11-19T12:38:07.677Z,12.50
2022-11-19T12:41:15.369Z,11.10
2022-11-19T12:44:22.717Z,8.40
2022-11-19T12:47:30.115Z,9.70
2022-11-19T12:50:37.589Z,9.70
2022-11-19T12:53:44.989Z,11.60
2022-11-19T12:56:52.959Z,7.50
2022-11-19T12:59:59.929Z,8.90
2022-11-19T13:03:07.742Z,9.10
2022-11-19T13:06:18.073Z,7.10
2022-11-19T13:09:24.970Z,8.60
2022-11-19T13:12:32.441Z,8.80
2022-11-19T13:15:39.302Z,8.10
2022-11-19T13:18:47.143Z,8.40
2022-11-19T13:21:53.989Z,7.50
2022-11-19T13:25:01.152Z,8.20
2022-11-19T13:28:08.619Z,8.00
2022-11-19T13:31:15.573Z,10.20
2022-11-19T13:34:23.118Z,9.20
2022-11-19T13:37:30.180Z,7.70
2022-11-19T13:40:37.182Z,9.90
2022-11-19T13:43:44.635Z,7.80
2022-11-19T13:46:51.814Z,9.60
2022-11-19T13:49:59.084Z,7.70
2022-11-19T13:53:06.405Z,8.40
2022-11-19T13:56:13.576Z,8.20
2022-11-19T13:59:21.393Z,10.40
2022-11-19T14:02:28.736Z,8.10
2022-11-19T14:05:36.436Z,8.40
2022-11-19T14:08:43.596Z,10.50
2022-11-19T14:11:50.807Z,10.00
2022-11-19T14:14:58.147Z,9.50
2022-11-19T14:18:04.884Z,8.40
2022-11-19T14:21:12.337Z,8.90
2022-11-19T14:24:19.748Z,9.80
2022-11-19T14:27:26.498Z,7.50
2022-11-19T14:30:33.960Z,7.50
2022-11-19T14:33:41.060Z,8.00
2022-11-19T14:36:48.194Z,5.70
2022-11-19T14:39:55.659Z,10.10
2022-11-19T14:43:02.639Z,9.90
2022-11-19T14:46:09.692Z,7.70
2022-11-19T14:49:17.338Z,6.30
2022-11-19T14:52:24.681Z,6.50
2022-11-19T14:55:31.800Z,16.00
2022-11-19T14:58:39.049Z,9.60
2022-11-19T15:01:46.582Z,8.80
2022-11-19T15:04:53.569Z,9.00
2022-11-19T15:08:00.722Z,7.20
2022-11-19T15:11:08.151Z,8.70
2022-11-19T15:14:14.962Z,8.30
2022-11-19T15:17:22.435Z,6.90
2022-11-19T15:20:29.756Z,9.40
2022-11-19T15:23:36.453Z,8.20
2022-11-19T15:26:43.970Z,9.50
2022-11-19T15:29:51.205Z,10.50
2022-11-19T15:32:58.033Z,10.30
2022-11-19T15:36:05.633Z,10.40
2022-11-19T15:39:12.344Z,10.80
2022-11-19T15:42:19.582Z,10.10
2022-11-19T15:45:27.102Z,9.80
2022-11-19T15:48:33.755Z,10.00
2022-11-19T15:51:41.846Z,11.50
2022-11-19T15:54:49.015Z,11.00
2022-11-19T15:57:56.557Z,10.60
2022-11-19T16:01:03.888Z,13.50
2022-11-19T16:04:10.926Z,14.60
2022-11-19T16:07:18.123Z,15.80
2022-11-19T16:10:25.565Z,11.40
2022-11-19T16:13:32.657Z,12.60
2022-11-19T16:16:40.117Z,14.60
2022-11-19T16:19:47.338Z,13.20
2022-11-19T16:22:54.738Z,16.20
2022-11-19T16:26:01.798Z,12.00
2022-11-19T16:29:09.026Z,11.80
2022-11-19T16:32:16.743Z,13.10
2022-11-19T16:35:24.178Z,13.00
2022-11-19T16:38:31.619Z,11.90
2022-11-19T16:41:39.319Z,12.40
2022-11-19T16:44:46.839Z,13.00
2022-11-19T16:47:54.302Z,13.60
2022-11-19T16:51:01.947Z,13.80
2022-11-19T16:54:09.401Z,15.80
2022-11-19T16:57:16.750Z,13.70
2022-11-19T17:00:24.565Z,14.00
2022-11-19T17:03:31.568Z,14.70
2022-11-19T17:06:39.472Z,16.70
2022-11-19T17:09:46.862Z,17.70
2022-11-19T17:12:53.871Z,18.50
2022-11-19T17:16:01.681Z,18.40
2022-11-19T17:19:09.031Z,20.50
2022-11-19T17:22:16.422Z,20.50
2022-11-19T17:25:24.301Z,20.20
2022-11-19T17:28:31.432Z,19.60
2022-11-19T17:31:39.510Z,24.30
2022-11-19T17:34:47.551Z,20.80
2022-11-19T17:37:55.313Z,25.40
2022-11-19T17:41:03.014Z,25.10
2022-11-19T17:44:10.533Z,27.90
2022-11-19T17:47:22.462Z,30.50
2022-11-19T17:50:20.279Z,33.10
2022-11-19T17:53:27.744Z,28.40
2022-11-19T17:56:35.274Z,28.60
2022-11-19T17:59:42.992Z,28.60
2022-11-19T18:02:50.304Z,27.00
2022-11-19T18:05:58.015Z,29.20
2022-11-19T18:09:05.386Z,29.50
2022-11-19T18:12:13.175Z,34.00
2022-11-19T18:15:20.583Z,35.90
2022-11-19T18:18:27.895Z,39.30
2022-11-19T18:21:35.826Z,35.80
2022-11-19T18:24:42.788Z,32.70
2022-11-19T18:27:50.389Z,34.40
2022-11-19T18:30:58.217Z,37.60
2022-11-19T18:34:05.166Z,35.60
2022-11-19T18:37:12.976Z,35.70
2022-11-19T18:40:20.509Z,40.60
2022-11-19T18:43:27.548Z,42.20
2022-11-19T18:46:35.515Z,39.00
2022-11-19T18:49:43.278Z,38.10
2022-11-19T18:52:50.439Z,42.90
2022-11-19T18:55:58.178Z,38.70
2022-11-19T18:59:05.519Z,38.80
2022-11-19T19:02:13.110Z,39.00
2022-11-19T19:05:20.728Z,36.10
2022-11-19T19:08:28.048Z,36.80
2022-11-19T19:11:35.488Z,35.00
2022-11-19T19:14:43.421Z,36.10
2022-11-19T19:17:50.887Z,31.80
2022-11-19T19:20:58.259Z,35.10
2022-11-19T19:24:05.629Z,37.50
2022-11-19T19:27:13.080Z,33.70
2022-11-19T19:30:20.489Z,34.50
2022-11-19T19:33:28.008Z,37.10
2022-11-19T19:36:35.459Z,37.50
2022-11-19T19:39:42.995Z,40.70
2022-11-19T19:42:50.503Z,36.40
2022-11-19T19:45:57.771Z,34.00
2022-11-19T19:49:05.181Z,34.00
2022-11-19T19:52:12.941Z,35.40
2022-11-19T19:55:20.432Z,37.80
2022-11-19T19:58:28.387Z,35.30
2022-11-19T20:01:36.429Z,35.70
2022-11-19T20:04:43.855Z,32.80
2022-11-19T20:07:51.315Z,37.70
2022-11-19T20:10:58.911Z,35.60
2022-11-19T20:14:05.867Z,32.90
2022-11-19T20:17:13.636Z,30.80
2022-11-19T20:20:21.236Z,35.60
2022-11-19T20:23:28.353Z,36.20
2022-11-19T20:26:36.013Z,36.90
2022-11-19T20:29:43.954Z,36.70
2022-11-19T20:32:51.114Z,38.60
2022-11-19T20:35:58.884Z,40.70
2022-11-19T20:39:06.343Z,41.90
2022-11-19T20:42:13.736Z,41.10
2022-11-19T20:45:21.476Z,39.00
2022-11-19T20:48:28.848Z,39.70
2022-11-19T20:51:36.336Z,35.30
2022-11-19T20:54:44.106Z,32.60
2022-11-19T20:57:51.656Z,36.90
2022-11-19T21:00:59.020Z,41.20
2022-11-19T21:04:06.365Z,46.30
2022-11-19T21:07:14.230Z,46.60
2022-11-19T21:10:21.525Z,46.00
2022-11-19T21:13:29.016Z,51.20
2022-11-19T21:16:36.746Z,42.10
2022-11-19T21:19:44.206Z,47.40
2022-11-19T21:22:51.556Z,45.20
2022-11-19T21:25:59.243Z,45.10
2022-11-19T21:29:06.704Z,45.80
2022-11-19T21:32:14.146Z,47.40
2022-11-19T21:35:21.596Z,46.50
2022-11-19T21:38:28.587Z,44.30
2022-11-19T21:41:35.916Z,45.30
2022-11-19T21:44:43.908Z,42.70
2022-11-19T21:47:51.010Z,40.10
2022-11-19T21:50:58.927Z,42.30
2022-11-19T21:54:06.609Z,44.50
2022-11-19T21:57:13.674Z,47.60
2022-11-19T22:00:21.297Z,44.80
2022-11-19T22:03:28.496Z,50.90
2022-11-19T22:06:35.998Z,47.30
2022-11-19T22:09:43.929Z,46.60
2022-11-19T22:12:51.208Z,48.40
2022-11-19T22:15:58.229Z,49.60
2022-11-19T22:19:05.859Z,51.70
2022-11-19T22:22:13.465Z,52.70
2022-11-19T22:25:20.830Z,63.30
2022-11-19T22:28:28.268Z,55.30
2022-11-19T22:31:36.080Z,56.30
2022-11-19T22:34:43.641Z,52.70
2022-11-19T22:37:51.088Z,52.30
2022-11-19T22:40:58.549Z,54.50
2022-11-19T22:44:06.021Z,54.00
2022-11-19T22:47:13.470Z,50.60
2022-11-19T22:50:20.741Z,48.30
2022-11-19T22:53:27.710Z,48.40
2022-11-19T22:56:35.480Z,47.30
2022-11-19T22:59:42.650Z,47.60
2022-11-19T23:02:50.074Z,38.50
2022-11-19T23:05:57.721Z,44.10
2022-11-19T23:09:04.913Z,43.00
2022-11-19T23:12:12.450Z,44.60
2022-11-19T23:15:20.060Z,39.10
2022-11-19T23:18:27.022Z,39.70
2022-11-19T23:21:34.782Z,39.40
2022-11-19T23:24:42.569Z,35.00
2022-11-19T23:27:49.535Z,35.80
2022-11-19T23:30:57.532Z,35.30
2022-11-19T23:34:05.312Z,38.10
2022-11-19T23:37:12.374Z,36.50
2022-11-19T23:40:20.233Z,43.60
2022-11-19T23:43:27.503Z,40.40
2022-11-19T23:46:35.009Z,44.50
2022-11-19T23:49:42.612Z,36.20
2022-11-19T23:52:49.646Z,39.90
2022-11-19T23:55:57.634Z,37.80
2022-11-19T23:59:05.444Z,37.40
